createdAt,value
2023-01-18T00:01:05.030Z,0.27
2023-01-18T00:03:34.032Z,0.41
2023-01-18T00:06:04.106Z,0.52
2023-01-18T00:08:34.247Z,0.57
2023-01-18T00:11:16.948Z,0.51
2023-01-18T00:13:45.093Z,0.40
2023-01-18T00:16:18.780Z,0.44
2023-01-18T00:18:57.423Z,-0.25
2023-01-18T00:21:26.971Z,-0.47
2023-01-18T00:23:57.448Z,-1.14
2023-01-18T00:26:24.671Z,-0.93
2023-01-18T00:28:51.866Z,-1.12
2023-01-18T00:31:21.003Z,-1.08
2023-01-18T00:33:50.309Z,-0.37
2023-01-18T00:36:19.099Z,-0.19
2023-01-18T00:38:53.897Z,0.12
2023-01-18T00:41:22.063Z,0.31
2023-01-18T00:43:50.319Z,0.34
2023-01-18T00:46:21.637Z,-0.01
2023-01-18T00:48:50.037Z,-0.17
2023-01-18T00:51:23.967Z,-0.20
2023-01-18T00:53:51.736Z,-0.22
2023-01-18T00:56:22.539Z,-0.13
2023-01-18T00:58:50.027Z,-0.05
2023-01-18T01:01:17.400Z,-0.08
2023-01-18T01:04:03.106Z,-0.32
2023-01-18T01:06:44.168Z,-0.33
2023-01-18T01:09:24.418Z,-0.33
2023-01-18T01:12:12.178Z,-0.51
2023-01-18T01:15:02.345Z,0.03
2023-01-18T01:17:50.344Z,0.13
2023-01-18T01:20:36.558Z,0.20
2023-01-18T01:23:34.933Z,0.35
2023-01-18T01:26:13.225Z,0.16
2023-01-18T01:28:50.016Z,-0.13
2023-01-18T01:31:19.960Z,-0.50
2023-01-18T01:33:49.089Z,-0.50
2023-01-18T01:36:21.019Z,-0.42
2023-01-18T01:38:48.186Z,-0.42
2023-01-18T01:41:21.895Z,-0.14
2023-01-18T01:43:51.968Z,-0.28
2023-01-18T01:46:31.545Z,-0.07
2023-01-18T01:49:32.695Z,-0.06
2023-01-18T01:52:13.437Z,-0.12
2023-01-18T01:54:50.045Z,-0.02
2023-01-18T01:57:26.142Z,-0.28
2023-01-18T02:00:02.826Z,-0.26
2023-01-18T02:02:32.830Z,-0.23
2023-01-18T02:05:04.183Z,-0.88
2023-01-18T02:07:32.349Z,-0.55
2023-01-18T02:10:01.734Z,-0.38
2023-01-18T02:12:30.485Z,-0.33
2023-01-18T02:14:59.773Z,-0.47
2023-01-18T02:18:08.624Z,-0.40
2023-01-18T02:21:05.435Z,-0.53
2023-01-18T02:23:40.120Z,-0.39
2023-01-18T02:26:26.623Z,-0.72
2023-01-18T02:29:13.579Z,-0.69
2023-01-18T02:32:29.066Z,-0.69
2023-01-18T02:35:10.892Z,-0.74
2023-01-18T02:38:12.394Z,-0.66
2023-01-18T02:41:05.155Z,-0.54
2023-01-18T02:43:53.488Z,-0.81
2023-01-18T02:46:30.681Z,-0.67
2023-01-18T02:49:00.536Z,-0.62
2023-01-18T02:51:27.741Z,-0.75
2023-01-18T02:53:54.900Z,-0.64
2023-01-18T02:56:39.512Z,-0.80
2023-01-18T02:59:16.181Z,-0.69
2023-01-18T03:02:16.408Z,-1.00
2023-01-18T03:04:54.331Z,-1.11
2023-01-18T03:07:29.544Z,-1.57
2023-01-18T03:10:00.700Z,-1.16
2023-01-18T03:12:56.590Z,-1.26
2023-01-18T03:15:50.435Z,-1.29
2023-01-18T03:19:02.058Z,-1.13
2023-01-18T03:21:48.693Z,-1.27
2023-01-18T03:24:19.570Z,-1.43
2023-01-18T03:26:54.997Z,-1.48
2023-01-18T03:29:42.083Z,-1.49
2023-01-18T03:32:34.201Z,-1.16
2023-01-18T03:35:09.473Z,-1.35
2023-01-18T03:37:41.065Z,-0.93
2023-01-18T03:40:18.246Z,-1.19
2023-01-18T03:42:57.300Z,-0.93
2023-01-18T03:45:33.574Z,-0.71
2023-01-18T03:48:02.472Z,-0.97
2023-01-18T03:50:47.000Z,-1.06
2023-01-18T03:53:28.691Z,-1.03
2023-01-18T03:56:08.142Z,-1.16
2023-01-18T03:58:36.835Z,-1.24
2023-01-18T04:01:05.289Z,-1.37
2023-01-18T04:03:34.341Z,-1.29
2023-01-18T04:06:05.796Z,-1.16
2023-01-18T04:08:33.119Z,-1.51
2023-01-18T04:11:00.290Z,-1.55
2023-01-18T04:13:27.427Z,-1.48
2023-01-18T04:15:54.655Z,-1.76
2023-01-18T04:18:21.843Z,-1.73
2023-01-18T04:20:49.060Z,-1.58
2023-01-18T04:23:16.197Z,-1.47
2023-01-18T04:25:49.873Z,-1.69
2023-01-18T04:28:25.106Z,-1.12
2023-01-18T04:30:54.731Z,-1.35
2023-01-18T04:33:23.600Z,-1.66
2023-01-18T04:35:51.684Z,-0.98
2023-01-18T04:38:18.837Z,-0.91
2023-01-18T04:40:46.011Z,-1.15
2023-01-18T04:43:13.136Z,-1.25
2023-01-18T04:45:40.320Z,-1.09
2023-01-18T04:48:07.477Z,-0.92
2023-01-18T04:50:34.706Z,-1.00
2023-01-18T04:53:02.152Z,-0.91
2023-01-18T04:55:29.507Z,-1.11
2023-01-18T04:57:57.401Z,-1.27
2023-01-18T05:00:25.178Z,-1.25
2023-01-18T05:02:52.456Z,-1.56
2023-01-18T05:05:19.717Z,-1.10
2023-01-18T05:07:46.948Z,-0.93
2023-01-18T05:10:14.252Z,-1.00
2023-01-18T05:12:41.433Z,-0.87
2023-01-18T05:15:09.695Z,-0.83
2023-01-18T05:17:37.043Z,-0.77
2023-01-18T05:20:08.707Z,-0.79
2023-01-18T05:22:37.193Z,-1.02
2023-01-18T05:25:06.762Z,-1.39
2023-01-18T05:27:33.957Z,-1.14
2023-01-18T05:30:01.875Z,-1.20
2023-01-18T05:32:29.004Z,-1.35
2023-01-18T05:34:56.188Z,-1.15
2023-01-18T05:37:23.322Z,-0.93
2023-01-18T05:39:50.487Z,-0.93
2023-01-18T05:42:17.621Z,-1.03
2023-01-18T05:44:44.760Z,-1.13
2023-01-18T05:47:11.932Z,-1.56
2023-01-18T05:49:41.065Z,-1.32
2023-01-18T05:52:09.015Z,-1.48
2023-01-18T05:54:36.183Z,-1.27
2023-01-18T05:57:03.366Z,-1.54
2023-01-18T05:59:30.477Z,-1.41
2023-01-18T06:01:57.670Z,-1.55
2023-01-18T06:04:24.896Z,-1.48
2023-01-18T06:06:52.102Z,-1.05
2023-01-18T06:09:19.213Z,-1.14
2023-01-18T06:11:46.451Z,-1.44
2023-01-18T06:14:13.623Z,-1.71
2023-01-18T06:16:40.933Z,-1.38
2023-01-18T06:19:08.080Z,-1.10
2023-01-18T06:21:35.246Z,-1.05
2023-01-18T06:24:02.383Z,-0.99
2023-01-18T06:26:31.143Z,-1.16
2023-01-18T06:28:58.346Z,-1.21
2023-01-18T06:31:25.553Z,-1.27
2023-01-18T06:33:52.740Z,-1.12
2023-01-18T06:36:19.900Z,-1.13
2023-01-18T06:38:47.008Z,-1.03
2023-01-18T06:41:15.187Z,-1.12
2023-01-18T06:43:42.316Z,-1.25
2023-01-18T06:46:11.535Z,-1.06
2023-01-18T06:48:38.736Z,-1.10
2023-01-18T06:51:05.915Z,-1.11
2023-01-18T06:53:33.038Z,-1.06
2023-01-18T06:56:01.962Z,-1.10
2023-01-18T06:58:32.726Z,-1.43
2023-01-18T07:01:01.097Z,-1.58
2023-01-18T07:03:30.801Z,-1.55
2023-01-18T07:06:00.937Z,-1.90
2023-01-18T07:08:31.030Z,-1.67
2023-01-18T07:10:59.516Z,-1.32
2023-01-18T07:13:27.035Z,-1.22
2023-01-18T07:16:00.770Z,-1.20
2023-01-18T07:18:30.408Z,-1.22
2023-01-18T07:21:10.114Z,-1.30
2023-01-18T07:23:40.095Z,-1.12
2023-01-18T07:26:15.555Z,-1.20
2023-01-18T07:28:45.383Z,-1.11
2023-01-18T07:31:13.324Z,-1.04
2023-01-18T07:33:40.621Z,-0.97
2023-01-18T07:36:10.810Z,-0.85
2023-01-18T07:38:39.168Z,-0.84
2023-01-18T07:41:10.147Z,-1.15
2023-01-18T07:43:37.846Z,-1.44
2023-01-18T07:46:08.415Z,-1.43
2023-01-18T07:48:37.516Z,-1.42
2023-01-18T07:51:08.777Z,-1.36
2023-01-18T07:53:38.296Z,-1.24
2023-01-18T07:56:13.761Z,-1.22
2023-01-18T07:58:41.039Z,-1.14
2023-01-18T08:01:13.322Z,-1.27
2023-01-18T08:03:42.590Z,-1.29
2023-01-18T08:06:10.095Z,-1.52
2023-01-18T08:08:37.320Z,-1.15
2023-01-18T08:11:07.077Z,-1.24
2023-01-18T08:13:34.602Z,-0.98
2023-01-18T08:16:06.718Z,-1.16
2023-01-18T08:18:34.016Z,-0.77
2023-01-18T08:21:01.138Z,-0.74
2023-01-18T08:23:28.335Z,-0.74
2023-01-18T08:25:55.476Z,-0.71
2023-01-18T08:28:22.774Z,-0.70
2023-01-18T08:30:49.940Z,-0.60
2023-01-18T08:33:17.084Z,-0.54
2023-01-18T08:35:47.464Z,-0.51
2023-01-18T08:38:16.567Z,-0.56
2023-01-18T08:40:43.746Z,-0.49
2023-01-18T08:43:11.871Z,-0.46
2023-01-18T08:45:39.025Z,-0.39
2023-01-18T08:48:10.109Z,-0.41
2023-01-18T08:50:39.092Z,-0.44
2023-01-18T08:53:06.750Z,-0.44
2023-01-18T08:55:36.414Z,-0.40
2023-01-18T08:58:04.129Z,-0.23
2023-01-18T09:00:31.407Z,-0.22
2023-01-18T09:02:59.622Z,-0.14
2023-01-18T09:05:27.594Z,-0.17
2023-01-18T09:07:55.788Z,-0.04
2023-01-18T09:10:23.562Z,0.01
2023-01-18T09:12:52.850Z,-0.13
2023-01-18T09:15:21.040Z,0.29
2023-01-18T09:17:48.189Z,0.41
2023-01-18T09:20:17.807Z,0.47
2023-01-18T09:22:47.981Z,0.53
2023-01-18T09:25:18.179Z,0.55
2023-01-18T09:27:46.546Z,0.69
2023-01-18T09:30:16.017Z,0.72
2023-01-18T09:32:43.309Z,0.66
2023-01-18T09:35:10.455Z,1.04
2023-01-18T09:37:37.657Z,0.96
2023-01-18T09:40:05.451Z,1.44
2023-01-18T09:42:45.119Z,1.66
2023-01-18T09:45:29.432Z,1.64
2023-01-18T09:48:05.573Z,1.91
2023-01-18T09:50:42.760Z,1.93
2023-01-18T09:53:37.486Z,1.93
2023-01-18T09:56:20.984Z,2.16
2023-01-18T09:59:12.863Z,2.08
2023-01-18T10:01:40.976Z,2.35
2023-01-18T10:04:20.876Z,2.32
2023-01-18T10:06:55.640Z,2.11
2023-01-18T10:09:36.747Z,2.21
2023-01-18T10:12:29.797Z,2.32
2023-01-18T10:15:07.557Z,2.45
2023-01-18T10:17:39.141Z,2.43
2023-01-18T10:20:24.842Z,2.50
2023-01-18T10:23:06.506Z,2.59
2023-01-18T10:25:48.825Z,2.43
2023-01-18T10:29:12.847Z,2.56
2023-01-18T10:31:58.555Z,2.67
2023-01-18T10:34:34.577Z,2.72
2023-01-18T10:37:37.357Z,2.70
2023-01-18T10:40:10.078Z,2.51
2023-01-18T10:42:57.236Z,2.46
2023-01-18T10:45:31.996Z,2.46
2023-01-18T10:48:24.882Z,2.50
2023-01-18T10:51:03.157Z,2.50
2023-01-18T10:53:36.964Z,2.49
2023-01-18T10:56:16.458Z,2.48
2023-01-18T10:58:51.425Z,2.26
2023-01-18T11:01:25.680Z,2.28
2023-01-18T11:04:06.678Z,2.20
2023-01-18T11:06:55.831Z,2.14
2023-01-18T11:09:34.823Z,2.21
2023-01-18T11:12:48.060Z,2.24
2023-01-18T11:15:15.196Z,2.12
2023-01-18T11:17:54.377Z,2.05
2023-01-18T11:20:48.748Z,2.19
2023-01-18T11:23:21.067Z,1.99
2023-01-18T11:26:07.416Z,2.05
2023-01-18T11:29:05.121Z,1.98
2023-01-18T11:31:47.159Z,2.11
2023-01-18T11:34:28.575Z,2.05
2023-01-18T11:36:58.283Z,2.11
2023-01-18T11:39:29.069Z,2.10
2023-01-18T11:42:21.766Z,2.07
2023-01-18T11:45:31.035Z,2.08
2023-01-18T11:48:30.183Z,2.08
2023-01-18T11:51:08.743Z,2.14
2023-01-18T11:53:56.811Z,2.18
2023-01-18T11:56:43.937Z,2.14
2023-01-18T11:59:30.990Z,2.29
2023-01-18T12:02:39.100Z,2.06
2023-01-18T12:05:36.425Z,2.11
2023-01-18T12:08:42.302Z,2.05
2023-01-18T12:11:45.735Z,2.24
2023-01-18T12:15:08.918Z,2.16
2023-01-18T12:18:27.450Z,2.36
2023-01-18T12:21:16.585Z,2.27
2023-01-18T12:24:13.521Z,2.55
2023-01-18T12:26:57.971Z,2.75
2023-01-18T12:29:58.425Z,2.78
2023-01-18T12:33:09.635Z,2.76
2023-01-18T12:35:58.124Z,2.89
2023-01-18T12:38:31.105Z,2.96
2023-01-18T12:41:13.353Z,3.09
2023-01-18T12:44:11.601Z,3.22
2023-01-18T12:47:01.889Z,3.41
2023-01-18T12:49:38.185Z,3.51
2023-01-18T12:52:18.019Z,3.69
2023-01-18T12:54:51.937Z,3.74
2023-01-18T12:57:21.140Z,3.76
2023-01-18T13:00:09.197Z,3.77
2023-01-18T13:02:45.649Z,3.92
2023-01-18T13:05:23.696Z,3.98
2023-01-18T13:08:06.296Z,4.00
2023-01-18T13:10:35.425Z,3.97
2023-01-18T13:13:05.858Z,4.07
2023-01-18T13:16:10.808Z,4.21
2023-01-18T13:19:06.092Z,4.24
2023-01-18T13:22:00.025Z,4.08
2023-01-18T13:24:52.947Z,3.98
2023-01-18T13:27:20.242Z,4.04
2023-01-18T13:29:47.624Z,4.04
2023-01-18T13:32:30.915Z,3.94
2023-01-18T13:35:20.696Z,3.92
2023-01-18T13:37:56.363Z,3.84
2023-01-18T13:40:40.907Z,3.78
2023-01-18T13:43:37.092Z,3.66
2023-01-18T13:46:06.923Z,3.58
2023-01-18T13:49:02.420Z,3.50
2023-01-18T13:51:41.787Z,3.41
2023-01-18T13:54:38.337Z,3.40
2023-01-18T13:57:05.437Z,3.32
2023-01-18T13:59:38.987Z,3.28
2023-01-18T14:02:24.995Z,3.19
2023-01-18T14:05:01.090Z,3.12
2023-01-18T14:07:28.457Z,3.13
2023-01-18T14:10:03.373Z,3.09
2023-01-18T14:12:52.337Z,3.07
2023-01-18T14:15:54.458Z,3.11
2023-01-18T14:18:28.630Z,3.03
2023-01-18T14:21:25.601Z,3.06
2023-01-18T14:24:22.393Z,3.02
2023-01-18T14:26:56.183Z,2.96
2023-01-18T14:29:49.244Z,2.96
2023-01-18T14:32:26.033Z,2.95
2023-01-18T14:35:02.245Z,2.88
2023-01-18T14:37:34.620Z,2.96
2023-01-18T14:40:21.396Z,2.94
2023-01-18T14:43:00.265Z,2.89
2023-01-18T14:45:35.413Z,2.95
2023-01-18T14:48:11.408Z,2.92
2023-01-18T14:50:45.913Z,2.88
2023-01-18T14:53:22.472Z,2.76
2023-01-18T14:56:10.877Z,2.84
2023-01-18T14:58:43.191Z,2.73
2023-01-18T15:01:52.256Z,2.76
2023-01-18T15:04:24.029Z,2.71
2023-01-18T15:06:59.360Z,2.65
2023-01-18T15:09:31.702Z,2.57
2023-01-18T15:12:03.013Z,2.52
2023-01-18T15:14:38.047Z,2.57
2023-01-18T15:17:21.210Z,2.50
2023-01-18T15:19:59.687Z,2.46
2023-01-18T15:22:34.319Z,2.25
2023-01-18T15:25:01.868Z,2.22
2023-01-18T15:27:32.634Z,1.83
2023-01-18T15:30:01.899Z,1.71
2023-01-18T15:32:32.725Z,1.65
2023-01-18T15:35:01.429Z,1.74
2023-01-18T15:37:33.645Z,2.10
2023-01-18T15:40:14.172Z,2.03
2023-01-18T15:43:30.890Z,2.06
2023-01-18T15:45:59.495Z,1.76
2023-01-18T15:48:33.686Z,2.02
2023-01-18T15:51:10.986Z,1.94
2023-01-18T15:53:52.270Z,2.01
2023-01-18T15:56:26.508Z,1.99
2023-01-18T15:58:58.888Z,1.92
2023-01-18T16:01:35.015Z,1.72
2023-01-18T16:04:23.688Z,1.83
2023-01-18T16:06:50.932Z,1.68
2023-01-18T16:09:21.607Z,1.71
2023-01-18T16:11:56.374Z,1.68
2023-01-18T16:14:27.786Z,1.60
2023-01-18T16:16:56.939Z,1.76
2023-01-18T16:19:33.160Z,1.60
2023-01-18T16:22:05.200Z,1.65
2023-01-18T16:25:20.963Z,1.57
2023-01-18T16:27:53.839Z,1.67
2023-01-18T16:30:37.652Z,1.64
2023-01-18T16:33:18.438Z,1.65
2023-01-18T16:35:46.227Z,1.43
2023-01-18T16:38:19.835Z,1.56
2023-01-18T16:40:50.089Z,1.25
2023-01-18T16:43:27.146Z,1.36
2023-01-18T16:45:58.825Z,1.42
2023-01-18T16:48:29.421Z,1.26
2023-01-18T16:50:59.577Z,1.29
2023-01-18T16:53:28.996Z,1.30
2023-01-18T16:55:56.644Z,1.33
2023-01-18T16:58:24.137Z,1.21
2023-01-18T17:01:07.344Z,1.22
2023-01-18T17:03:35.953Z,1.12
2023-01-18T17:06:03.799Z,1.05
2023-01-18T17:08:30.926Z,1.07
2023-01-18T17:10:58.083Z,1.25
2023-01-18T17:13:26.161Z,1.18
2023-01-18T17:15:53.506Z,1.07
2023-01-18T17:18:25.684Z,1.07
2023-01-18T17:20:54.487Z,1.12
2023-01-18T17:23:25.570Z,1.24
2023-01-18T17:25:52.761Z,1.06
2023-01-18T17:28:20.078Z,1.03
2023-01-18T17:30:49.616Z,1.08
2023-01-18T17:33:21.340Z,1.10
2023-01-18T17:35:50.457Z,1.11
2023-01-18T17:38:24.231Z,1.18
2023-01-18T17:40:52.444Z,1.11
2023-01-18T17:43:32.233Z,1.12
2023-01-18T17:46:03.931Z,1.00
2023-01-18T17:48:31.424Z,1.15
2023-01-18T17:50:58.847Z,1.00
2023-01-18T17:53:26.465Z,1.11
2023-01-18T17:55:53.724Z,1.09
2023-01-18T17:58:20.902Z,0.98
2023-01-18T18:00:48.176Z,1.04
2023-01-18T18:03:15.501Z,1.21
2023-01-18T18:05:43.507Z,1.19
2023-01-18T18:08:10.818Z,0.84
2023-01-18T18:10:37.951Z,1.10
2023-01-18T18:13:05.272Z,1.19
2023-01-18T18:15:32.398Z,1.12
2023-01-18T18:17:59.609Z,1.07
2023-01-18T18:20:26.755Z,1.08
2023-01-18T18:22:53.864Z,1.21
2023-01-18T18:25:20.989Z,1.10
2023-01-18T18:27:48.187Z,1.05
2023-01-18T18:30:17.477Z,1.08
2023-01-18T18:32:44.890Z,1.01
2023-01-18T18:35:24.442Z,1.01
2023-01-18T18:37:54.291Z,1.07
2023-01-18T18:40:22.198Z,0.95
2023-01-18T18:43:01.190Z,1.06
2023-01-18T18:45:31.808Z,1.02
2023-01-18T18:47:59.692Z,1.05
2023-01-18T18:50:28.408Z,0.94
2023-01-18T18:52:55.913Z,0.96
2023-01-18T18:55:24.439Z,0.94
2023-01-18T18:57:51.626Z,0.89
2023-01-18T19:00:19.535Z,0.93
2023-01-18T19:02:46.832Z,0.98
2023-01-18T19:05:15.202Z,0.85
2023-01-18T19:07:43.153Z,1.05
2023-01-18T19:10:13.369Z,0.95
2023-01-18T19:12:40.522Z,0.83
2023-01-18T19:15:08.526Z,0.84
2023-01-18T19:17:37.150Z,0.93
2023-01-18T19:20:07.395Z,0.91
2023-01-18T19:22:38.228Z,0.89
2023-01-18T19:25:06.572Z,0.86
2023-01-18T19:27:34.212Z,0.54
2023-01-18T19:30:01.498Z,0.65
2023-01-18T19:32:29.002Z,0.79
2023-01-18T19:34:56.323Z,0.71
2023-01-18T19:37:23.473Z,0.56
2023-01-18T19:39:50.618Z,0.73
2023-01-18T19:42:17.849Z,0.40
2023-01-18T19:44:45.011Z,0.65
2023-01-18T19:47:12.126Z,0.50
2023-01-18T19:49:40.546Z,0.68
2023-01-18T19:52:07.674Z,0.76
2023-01-18T19:54:34.987Z,0.20
2023-01-18T19:57:02.591Z,0.56
2023-01-18T19:59:29.707Z,0.55
2023-01-18T20:01:57.020Z,0.55
2023-01-18T20:04:24.380Z,0.58
2023-01-18T20:06:51.586Z,0.59
2023-01-18T20:09:21.196Z,0.59
2023-01-18T20:11:50.523Z,0.49
2023-01-18T20:14:19.265Z,0.58
2023-01-18T20:16:46.868Z,0.43
2023-01-18T20:19:15.719Z,0.30
2023-01-18T20:21:43.477Z,0.48
2023-01-18T20:24:10.994Z,0.54
2023-01-18T20:26:40.977Z,0.65
2023-01-18T20:29:09.868Z,0.64
2023-01-18T20:31:39.122Z,0.46
2023-01-18T20:34:07.238Z,0.16
2023-01-18T20:36:37.464Z,0.61
2023-01-18T20:39:06.055Z,0.48
2023-01-18T20:41:33.210Z,0.39
2023-01-18T20:44:00.588Z,0.51
2023-01-18T20:46:27.777Z,0.45
2023-01-18T20:48:54.918Z,0.56
2023-01-18T20:51:22.087Z,0.36
2023-01-18T20:53:49.515Z,0.55
2023-01-18T20:56:28.896Z,0.50
2023-01-18T20:58:57.943Z,0.47
2023-01-18T21:01:31.567Z,0.41
2023-01-18T21:04:01.640Z,0.41
2023-01-18T21:06:29.423Z,0.26
2023-01-18T21:08:58.725Z,0.35
2023-01-18T21:11:26.909Z,0.60
2023-01-18T21:13:56.115Z,0.55
2023-01-18T21:16:25.573Z,0.34
2023-01-18T21:18:53.879Z,0.44
2023-01-18T21:21:21.018Z,0.45
2023-01-18T21:23:48.196Z,0.50
2023-01-18T21:26:15.678Z,0.35
2023-01-18T21:28:42.870Z,0.50
2023-01-18T21:31:11.246Z,0.44
2023-01-18T21:33:38.427Z,0.52
2023-01-18T21:36:12.759Z,0.54
2023-01-18T21:38:40.064Z,0.61
2023-01-18T21:41:25.794Z,0.47
2023-01-18T21:44:12.785Z,0.43
2023-01-18T21:46:51.671Z,0.54
2023-01-18T21:52:58.395Z,0.57
2023-01-18T21:55:25.600Z,0.52
2023-01-18T21:58:11.292Z,0.57
2023-01-18T22:00:41.158Z,0.50
2023-01-18T22:03:09.737Z,0.60
2023-01-18T22:05:38.685Z,0.55
2023-01-18T22:08:07.338Z,0.56
2023-01-18T22:10:34.474Z,0.42
2023-01-18T22:13:01.630Z,0.55
2023-01-18T22:15:28.865Z,0.33
2023-01-18T22:17:56.303Z,0.37
2023-01-18T22:20:23.503Z,0.28
2023-01-18T22:22:51.025Z,0.49
2023-01-18T22:25:18.199Z,0.54
2023-01-18T22:27:45.352Z,0.48
2023-01-18T22:30:13.221Z,0.33
2023-01-18T22:32:40.577Z,0.34
2023-01-18T22:35:08.147Z,0.20
2023-01-18T22:37:35.272Z,0.36
2023-01-18T22:40:02.482Z,0.43
2023-01-18T22:42:30.168Z,0.17
2023-01-18T22:44:57.427Z,0.38
2023-01-18T22:47:24.586Z,0.39
2023-01-18T22:49:51.739Z,0.47
2023-01-18T22:52:19.274Z,0.46
2023-01-18T22:54:46.543Z,0.35
2023-01-18T22:57:13.695Z,0.44
2023-01-18T22:59:40.881Z,0.47
2023-01-18T23:02:08.014Z,0.45
2023-01-18T23:04:35.246Z,0.43
2023-01-18T23:07:02.431Z,0.46
2023-01-18T23:09:29.756Z,0.38
2023-01-18T23:11:56.978Z,0.48
2023-01-18T23:14:43.104Z,0.42
2023-01-18T23:17:31.820Z,0.34
2023-01-18T23:19:59.024Z,0.42
2023-01-18T23:22:26.253Z,0.24
2023-01-18T23:24:53.509Z,0.36
2023-01-18T23:27:20.664Z,0.40
2023-01-18T23:29:51.353Z,0.36
2023-01-18T23:32:18.565Z,0.42
2023-01-18T23:34:47.645Z,0.38
2023-01-18T23:37:14.780Z,0.35
2023-01-18T23:40:00.460Z,0.29
2023-01-18T23:42:46.294Z,0.32
2023-01-18T23:45:32.413Z,0.29
2023-01-18T23:48:31.589Z,0.32
2023-01-18T23:51:18.243Z,0.41
2023-01-18T23:54:04.186Z,0.34
2023-01-18T23:56:31.714Z,0.19
2023-01-18T23:58:59.250Z,0.29
